Air Navigation Services of Czech Republic
Airport: LKKU Updated:  18.07.2018 18:01:07  UTC
 METAR LKKU 18.07. 18:00 ...
METAR LKKU 181800Z 32006KT 9999 BKN044 20/15 Q1012 RMK REG QNH 1009=